createdAt,value
2019-03-06T00:01:16.084Z,20.20
2019-03-06T00:03:44.490Z,18.60
2019-03-06T00:06:16.608Z,19.75
2019-03-06T00:08:41.431Z,18.50
2019-03-06T00:11:09.954Z,19.25
2019-03-06T00:13:38.393Z,18.07
2019-03-06T00:16:07.609Z,20.35
2019-03-06T00:18:36.172Z,16.42
2019-03-06T00:21:04.596Z,16.62
2019-03-06T00:23:34.106Z,17.32
2019-03-06T00:26:02.534Z,16.52
2019-03-06T00:28:32.056Z,17.05
2019-03-06T00:31:02.575Z,16.30
2019-03-06T00:33:32.379Z,13.60
2019-03-06T00:36:01.856Z,17.27
2019-03-06T00:38:30.380Z,17.65
2019-03-06T00:41:24.415Z,15.35
2019-03-06T00:43:52.944Z,17.02
2019-03-06T00:46:22.105Z,15.88
2019-03-06T00:48:50.623Z,16.32
2019-03-06T00:51:19.089Z,16.42
2019-03-06T00:53:47.652Z,17.25
2019-03-06T00:56:16.149Z,15.93
2019-03-06T00:58:46.594Z,18.10
2019-03-06T01:01:15.332Z,19.98
2019-03-06T01:03:43.865Z,15.55
2019-03-06T01:06:12.332Z,19.48
2019-03-06T01:08:40.904Z,17.17
2019-03-06T01:11:09.381Z,15.58
2019-03-06T01:13:38.197Z,14.98
2019-03-06T01:16:06.810Z,15.10
2019-03-06T01:18:35.256Z,17.77
2019-03-06T01:21:03.714Z,16.87
2019-03-06T01:23:32.220Z,14.80
2019-03-06T01:26:01.701Z,14.65
2019-03-06T01:28:30.219Z,15.95
2019-03-06T01:30:58.673Z,17.10
2019-03-06T01:33:34.259Z,12.50
2019-03-06T01:36:14.290Z,17.37
2019-03-06T01:39:04.576Z,19.70
2019-03-06T01:41:44.090Z,15.05
2019-03-06T01:44:35.524Z,18.20
2019-03-06T01:49:32.794Z,15.18
2019-03-06T01:52:01.310Z,15.90
2019-03-06T01:54:29.857Z,19.67
2019-03-06T01:56:58.217Z,15.78
2019-03-06T01:59:27.109Z,15.20
2019-03-06T02:01:55.595Z,24.72
2019-03-06T02:04:24.097Z,14.15
2019-03-06T02:06:52.555Z,14.58
2019-03-06T02:09:21.066Z,16.05
2019-03-06T02:11:49.608Z,15.23
2019-03-06T02:14:18.007Z,16.07
2019-03-06T02:16:46.528Z,15.03
2019-03-06T02:19:14.978Z,14.30
2019-03-06T02:21:43.451Z,19.15
2019-03-06T02:24:11.937Z,16.00
2019-03-06T02:26:40.825Z,22.62
2019-03-06T02:29:09.307Z,15.65
2019-03-06T02:31:38.510Z,16.60
2019-03-06T02:34:07.361Z,18.25
2019-03-06T02:36:35.869Z,18.92
2019-03-06T02:39:04.781Z,18.50
2019-03-06T02:41:33.282Z,18.85
2019-03-06T02:44:01.742Z,15.40
2019-03-06T02:46:30.221Z,18.23
2019-03-06T02:48:58.664Z,16.37
2019-03-06T02:51:27.463Z,20.88
2019-03-06T02:53:55.962Z,16.77
2019-03-06T02:56:24.440Z,20.20
2019-03-06T02:59:14.980Z,24.27
2019-03-06T03:02:14.659Z,19.65
2019-03-06T03:04:52.373Z,18.80
2019-03-06T03:07:20.818Z,19.35
2019-03-06T03:09:50.328Z,18.45
2019-03-06T03:12:18.811Z,17.27
2019-03-06T03:14:47.298Z,16.82
2019-03-06T03:17:15.767Z,18.25
2019-03-06T03:19:44.231Z,19.80
2019-03-06T03:22:12.728Z,20.23
2019-03-06T03:24:41.197Z,17.23
2019-03-06T03:27:09.700Z,19.10
2019-03-06T03:29:39.364Z,17.87
2019-03-06T03:32:07.887Z,18.87
2019-03-06T03:34:36.359Z,18.50
2019-03-06T03:37:05.131Z,63.42
2019-03-06T03:39:33.907Z,40.33
2019-03-06T03:42:02.791Z,31.50
2019-03-06T03:44:31.298Z,22.07
2019-03-06T03:47:00.016Z,20.80
2019-03-06T03:49:28.504Z,195.97
2019-03-06T03:51:56.949Z,167.43
2019-03-06T03:54:26.473Z,27.75
2019-03-06T03:56:55.178Z,21.12
2019-03-06T03:59:23.627Z,23.15
2019-03-06T04:01:52.093Z,20.77
2019-03-06T04:04:20.589Z,20.97
2019-03-06T04:06:49.441Z,20.08
2019-03-06T04:09:17.974Z,20.72
2019-03-06T04:11:46.439Z,20.72
2019-03-06T04:14:14.917Z,22.27
2019-03-06T04:16:43.414Z,22.42
2019-03-06T04:19:11.882Z,18.98
2019-03-06T04:21:40.637Z,18.62
2019-03-06T04:24:09.872Z,21.90
2019-03-06T04:26:38.334Z,19.65
2019-03-06T04:29:06.826Z,17.90
2019-03-06T04:31:35.296Z,16.87
2019-03-06T04:34:03.969Z,17.20
2019-03-06T04:36:32.472Z,18.77
2019-03-06T04:39:00.951Z,21.85
2019-03-06T04:41:30.527Z,19.25
2019-03-06T04:43:58.864Z,21.50
2019-03-06T04:46:27.310Z,20.23
2019-03-06T04:48:55.809Z,20.17
2019-03-06T04:51:24.258Z,21.87
2019-03-06T04:53:52.790Z,27.40
2019-03-06T04:56:21.510Z,23.62
2019-03-06T04:58:51.322Z,26.60
2019-03-06T05:01:20.418Z,21.60
2019-03-06T05:03:48.927Z,20.50
2019-03-06T05:06:17.436Z,17.95
2019-03-06T05:08:45.886Z,18.75
2019-03-06T05:11:14.761Z,18.92
2019-03-06T05:13:43.254Z,24.63
2019-03-06T05:16:12.017Z,20.77
2019-03-06T05:18:51.928Z,19.92
2019-03-06T05:21:20.664Z,18.45
2019-03-06T05:23:49.155Z,17.70
2019-03-06T05:26:17.665Z,18.90
2019-03-06T05:28:46.125Z,17.67
2019-03-06T05:31:14.646Z,19.65
2019-03-06T05:33:43.097Z,18.32
2019-03-06T05:36:27.291Z,19.87
2019-03-06T05:39:08.934Z,27.58
2019-03-06T05:41:37.403Z,21.48
2019-03-06T05:44:05.902Z,22.60
2019-03-06T05:46:35.396Z,20.82
2019-03-06T05:49:04.135Z,22.35
2019-03-06T05:51:32.662Z,20.60
2019-03-06T05:54:01.151Z,23.92
2019-03-06T05:56:29.614Z,19.57
2019-03-06T05:58:58.098Z,20.75
2019-03-06T06:01:26.595Z,21.17
2019-03-06T06:03:55.094Z,20.32
2019-03-06T06:06:23.933Z,22.67
2019-03-06T06:08:52.473Z,18.20
2019-03-06T06:11:20.903Z,21.62
2019-03-06T06:13:49.657Z,23.40
2019-03-06T06:16:18.477Z,24.00
2019-03-06T06:18:46.986Z,25.70
2019-03-06T06:21:40.647Z,25.52
2019-03-06T06:24:14.653Z,26.30
2019-03-06T06:26:43.126Z,29.87
2019-03-06T06:29:12.632Z,30.97
2019-03-06T06:31:42.647Z,28.47
2019-03-06T06:34:11.648Z,30.15
2019-03-06T06:36:40.532Z,29.72
2019-03-06T06:39:09.406Z,29.98
2019-03-06T06:41:38.929Z,32.73
2019-03-06T06:44:07.403Z,32.40
2019-03-06T06:46:35.883Z,30.32
2019-03-06T06:49:04.364Z,39.38
2019-03-06T06:51:59.662Z,30.50
2019-03-06T06:54:33.495Z,30.50
2019-03-06T06:57:16.748Z,32.45
2019-03-06T06:59:48.243Z,36.33
2019-03-06T07:03:11.676Z,34.10
2019-03-06T07:05:59.423Z,32.83
2019-03-06T07:09:05.515Z,33.50
2019-03-06T07:11:58.104Z,30.50
2019-03-06T07:14:48.716Z,29.90
2019-03-06T07:17:29.325Z,29.87
2019-03-06T07:20:07.271Z,25.90
2019-03-06T07:22:42.410Z,28.00
2019-03-06T07:25:31.936Z,27.67
2019-03-06T07:28:23.606Z,21.52
2019-03-06T07:31:10.284Z,19.92
2019-03-06T07:33:56.834Z,17.12
2019-03-06T07:36:44.658Z,18.17
2019-03-06T07:39:18.361Z,17.10
2019-03-06T07:42:05.281Z,15.20
2019-03-06T07:44:51.653Z,17.17
2019-03-06T07:47:57.975Z,12.13
2019-03-06T07:50:33.383Z,13.45
2019-03-06T07:53:52.310Z,12.82
2019-03-06T07:56:27.583Z,10.90
2019-03-06T07:58:56.682Z,13.40
2019-03-06T08:01:26.159Z,17.23
2019-03-06T08:04:05.435Z,14.23
2019-03-06T08:06:33.859Z,13.13
2019-03-06T08:09:02.350Z,11.88
2019-03-06T08:11:35.872Z,13.88
2019-03-06T08:14:22.615Z,11.15
2019-03-06T08:16:59.134Z,9.45
2019-03-06T08:19:41.254Z,10.28
2019-03-06T08:22:29.007Z,12.88
2019-03-06T08:25:22.448Z,11.83
2019-03-06T08:27:50.977Z,9.88
2019-03-06T08:30:21.418Z,9.98
2019-03-06T08:32:49.900Z,20.23
2019-03-06T08:35:18.378Z,10.32
2019-03-06T08:37:46.868Z,8.88
2019-03-06T08:40:15.647Z,8.85
2019-03-06T08:42:44.133Z,10.25
2019-03-06T08:45:12.649Z,9.23
2019-03-06T08:47:48.591Z,10.82
2019-03-06T08:50:40.512Z,8.60
2019-03-06T08:53:28.616Z,9.20
2019-03-06T08:56:22.019Z,12.07
2019-03-06T08:59:12.544Z,7.40
2019-03-06T09:01:59.822Z,7.13
2019-03-06T09:04:29.806Z,7.83
2019-03-06T09:07:26.735Z,8.58
2019-03-06T09:10:09.626Z,9.18
2019-03-06T09:12:46.536Z,9.18
2019-03-06T09:15:32.934Z,7.03
2019-03-06T09:18:29.766Z,8.60
2019-03-06T09:21:18.418Z,9.30
2019-03-06T09:24:10.248Z,6.75
2019-03-06T09:27:04.055Z,7.92
2019-03-06T09:29:48.535Z,8.68
2019-03-06T09:32:28.635Z,8.78
2019-03-06T09:35:19.999Z,8.23
2019-03-06T09:40:45.988Z,10.58
2019-03-06T09:43:25.838Z,9.08
2019-03-06T09:46:20.680Z,6.33
2019-03-06T09:49:01.604Z,7.10
2019-03-06T09:51:47.836Z,8.68
2019-03-06T09:54:34.411Z,6.35
2019-03-06T09:57:11.990Z,6.42
2019-03-06T10:00:00.019Z,6.83
2019-03-06T10:02:37.211Z,7.03
2019-03-06T10:05:19.014Z,6.72
2019-03-06T10:08:05.827Z,6.97
2019-03-06T10:10:57.800Z,4.95
2019-03-06T10:13:33.521Z,6.20
2019-03-06T10:16:16.118Z,6.12
2019-03-06T10:18:50.846Z,5.95
2019-03-06T10:21:19.559Z,6.80
2019-03-06T10:23:49.017Z,8.75
2019-03-06T10:26:36.085Z,6.87
2019-03-06T10:29:04.618Z,4.85
2019-03-06T10:31:33.477Z,4.05
2019-03-06T10:34:02.467Z,4.25
2019-03-06T10:36:31.987Z,7.15
2019-03-06T10:39:02.411Z,4.65
2019-03-06T10:41:31.930Z,5.23
2019-03-06T10:44:00.709Z,5.78
2019-03-06T10:46:29.177Z,6.08
2019-03-06T10:48:57.657Z,6.08
2019-03-06T10:51:26.150Z,5.85
2019-03-06T10:53:54.562Z,4.12
2019-03-06T10:56:23.003Z,5.33
2019-03-06T10:58:51.490Z,4.17
2019-03-06T11:01:19.956Z,7.10
2019-03-06T11:04:13.786Z,4.90
2019-03-06T11:06:43.012Z,5.97
2019-03-06T11:09:11.516Z,5.45
2019-03-06T11:11:39.992Z,6.03
2019-03-06T11:14:08.482Z,7.47
2019-03-06T11:16:40.025Z,7.12
2019-03-06T11:19:05.446Z,7.78
2019-03-06T11:21:33.920Z,6.87
2019-03-06T11:24:02.417Z,5.70
2019-03-06T11:26:30.892Z,5.87
2019-03-06T11:28:59.551Z,7.40
2019-03-06T11:31:28.048Z,9.58
2019-03-06T11:33:56.526Z,3.52
2019-03-06T11:36:25.008Z,6.28
2019-03-06T11:38:53.478Z,6.30
2019-03-06T11:41:22.363Z,5.92
2019-03-06T11:43:51.463Z,5.20
2019-03-06T11:46:19.563Z,6.10
2019-03-06T11:48:48.017Z,5.42
2019-03-06T11:51:16.501Z,5.37
2019-03-06T11:53:45.413Z,6.05
2019-03-06T11:56:14.358Z,4.10
2019-03-06T11:58:44.613Z,6.00
2019-03-06T12:01:15.847Z,3.83
2019-03-06T12:03:44.151Z,6.50
2019-03-06T12:06:12.624Z,6.42
2019-03-06T12:08:45.491Z,5.85
2019-03-06T12:11:09.616Z,5.17
2019-03-06T12:13:38.082Z,5.05
2019-03-06T12:16:06.824Z,6.85
2019-03-06T12:18:35.710Z,5.65
2019-03-06T12:21:04.099Z,6.47
2019-03-06T12:23:32.982Z,5.58
2019-03-06T12:26:01.473Z,3.00
2019-03-06T12:28:30.355Z,5.75
2019-03-06T12:30:59.142Z,4.10
2019-03-06T12:33:28.606Z,6.17
2019-03-06T12:35:57.029Z,3.12
2019-03-06T12:38:25.528Z,4.70
2019-03-06T12:40:53.993Z,3.52
2019-03-06T12:43:23.610Z,5.37
2019-03-06T12:46:10.018Z,4.60
2019-03-06T12:48:38.518Z,4.70
2019-03-06T12:51:06.960Z,3.17
2019-03-06T12:53:36.056Z,8.45
2019-03-06T12:56:05.554Z,5.33
2019-03-06T12:58:34.059Z,5.65
2019-03-06T13:01:04.665Z,3.75
2019-03-06T13:03:33.166Z,3.87
2019-03-06T13:06:02.654Z,2.55
2019-03-06T13:08:31.157Z,2.77
2019-03-06T13:10:59.639Z,3.22
2019-03-06T13:13:35.543Z,4.62
2019-03-06T13:15:56.831Z,5.22
2019-03-06T13:18:25.282Z,5.35
2019-03-06T13:20:56.928Z,6.53
2019-03-06T13:23:25.426Z,4.10
2019-03-06T13:25:53.894Z,3.55
2019-03-06T13:28:25.127Z,4.37
2019-03-06T13:30:53.609Z,3.25
2019-03-06T13:33:33.956Z,3.80
2019-03-06T13:36:02.447Z,2.65
2019-03-06T13:38:30.951Z,1.55
2019-03-06T13:41:01.459Z,4.17
2019-03-06T13:43:30.985Z,3.77
2019-03-06T13:46:00.476Z,4.87
2019-03-06T13:48:29.563Z,2.42
2019-03-06T13:50:58.038Z,4.20
2019-03-06T13:53:26.539Z,2.70
2019-03-06T13:55:55.001Z,3.17
2019-03-06T13:58:23.508Z,3.72
2019-03-06T14:00:52.265Z,3.77
2019-03-06T14:03:21.142Z,2.70
2019-03-06T14:05:49.944Z,2.17
2019-03-06T14:08:18.512Z,2.55
2019-03-06T14:10:47.044Z,2.98
2019-03-06T14:13:15.492Z,2.25
2019-03-06T14:15:53.433Z,3.50
2019-03-06T14:18:13.176Z,3.25
2019-03-06T14:20:41.671Z,3.27
2019-03-06T14:23:10.133Z,3.08
2019-03-06T14:25:39.323Z,4.58
2019-03-06T14:28:07.802Z,3.08
2019-03-06T14:30:36.315Z,3.10
2019-03-06T14:33:04.862Z,5.00
2019-03-06T14:35:33.268Z,1.82
2019-03-06T14:38:01.778Z,3.12
2019-03-06T14:40:30.516Z,2.98
2019-03-06T14:43:00.035Z,4.25
2019-03-06T14:45:28.557Z,3.67
2019-03-06T14:47:56.994Z,8.23
2019-03-06T14:50:25.494Z,4.53
2019-03-06T14:52:54.974Z,3.00
2019-03-06T14:55:23.484Z,3.92
2019-03-06T14:57:53.038Z,4.23
2019-03-06T15:00:22.122Z,3.92
2019-03-06T15:02:50.627Z,3.10
2019-03-06T15:05:19.137Z,2.83
2019-03-06T15:07:49.648Z,4.22
2019-03-06T15:10:18.143Z,3.10
2019-03-06T15:12:46.608Z,5.15
2019-03-06T15:15:15.818Z,4.65
2019-03-06T15:17:44.316Z,3.22
2019-03-06T15:20:13.709Z,2.75
2019-03-06T15:22:42.179Z,3.58
2019-03-06T15:25:12.030Z,3.62
2019-03-06T15:27:41.545Z,5.78
2019-03-06T15:30:10.705Z,7.22
2019-03-06T15:32:39.870Z,4.60
2019-03-06T15:35:08.381Z,4.00
2019-03-06T15:37:36.849Z,8.38
2019-03-06T15:40:06.583Z,2.55
2019-03-06T15:42:35.050Z,2.67
2019-03-06T15:45:03.605Z,5.17
2019-03-06T15:47:33.811Z,3.27
2019-03-06T15:50:00.774Z,3.47
2019-03-06T15:52:29.176Z,4.10
2019-03-06T15:54:57.721Z,7.08
2019-03-06T15:57:26.238Z,4.75
2019-03-06T15:59:55.106Z,7.35
2019-03-06T16:02:23.628Z,5.30
2019-03-06T16:04:52.072Z,6.17
2019-03-06T16:07:24.412Z,4.72
2019-03-06T16:09:55.248Z,3.90
2019-03-06T16:12:21.737Z,5.03
2019-03-06T16:14:50.213Z,4.62
2019-03-06T16:17:18.697Z,4.37
2019-03-06T16:19:47.169Z,5.00
2019-03-06T16:22:16.374Z,5.28
2019-03-06T16:24:45.138Z,6.45
2019-03-06T16:27:15.570Z,3.98
2019-03-06T16:29:47.119Z,4.03
2019-03-06T16:32:16.330Z,3.35
2019-03-06T16:37:20.786Z,4.17
2019-03-06T16:39:49.245Z,8.30
2019-03-06T16:42:18.126Z,3.77
2019-03-06T16:44:47.746Z,6.62
2019-03-06T16:47:16.519Z,3.87
2019-03-06T16:49:45.298Z,5.15
2019-03-06T16:52:13.783Z,4.25
2019-03-06T16:54:42.305Z,6.00
2019-03-06T16:57:12.802Z,6.72
2019-03-06T16:59:41.285Z,6.70
2019-03-06T17:02:09.753Z,4.28
2019-03-06T17:04:38.504Z,6.05
2019-03-06T17:07:07.023Z,7.75
2019-03-06T17:09:35.520Z,7.08
2019-03-06T17:12:03.996Z,10.38
2019-03-06T17:14:32.484Z,7.92
2019-03-06T17:17:00.941Z,8.28
2019-03-06T17:19:29.441Z,9.68
2019-03-06T17:21:57.939Z,10.60
2019-03-06T17:24:26.460Z,13.48
2019-03-06T17:26:54.979Z,6.15
2019-03-06T17:29:24.511Z,12.75
2019-03-06T17:31:54.342Z,11.30
2019-03-06T17:34:21.505Z,11.73
2019-03-06T17:36:50.220Z,5.25
2019-03-06T17:39:18.996Z,7.95
2019-03-06T17:41:47.490Z,8.45
2019-03-06T17:44:18.054Z,7.58
2019-03-06T17:46:46.857Z,7.58
2019-03-06T17:49:15.633Z,13.28
2019-03-06T17:51:44.468Z,9.70
2019-03-06T17:54:12.970Z,6.47
2019-03-06T17:56:41.476Z,11.53
2019-03-06T17:59:10.222Z,7.17
2019-03-06T18:01:38.733Z,6.70
2019-03-06T18:04:15.146Z,7.62
2019-03-06T18:06:43.653Z,7.15
2019-03-06T18:09:12.056Z,8.70
2019-03-06T18:11:40.524Z,7.50
2019-03-06T18:14:10.038Z,8.83
2019-03-06T18:16:38.518Z,12.50
2019-03-06T18:19:07.278Z,11.18
2019-03-06T18:21:38.030Z,12.58
2019-03-06T18:24:06.527Z,10.77
2019-03-06T18:26:35.302Z,11.97
2019-03-06T18:29:04.070Z,7.67
2019-03-06T18:31:32.667Z,15.68
2019-03-06T18:34:02.477Z,9.10
2019-03-06T18:36:30.877Z,9.80
2019-03-06T18:38:59.286Z,7.42
2019-03-06T18:41:28.855Z,11.15
2019-03-06T18:43:57.321Z,8.73
2019-03-06T18:46:25.826Z,8.80
2019-03-06T18:48:54.290Z,9.20
2019-03-06T18:51:22.778Z,8.65
2019-03-06T18:53:51.255Z,16.80
2019-03-06T18:56:19.747Z,10.35
2019-03-06T18:58:48.215Z,12.15
2019-03-06T19:01:17.712Z,7.78
2019-03-06T19:03:46.930Z,15.18
2019-03-06T19:06:15.414Z,10.30
2019-03-06T19:08:43.899Z,9.00
2019-03-06T19:11:17.024Z,10.40
2019-03-06T19:13:41.872Z,6.37
2019-03-06T19:16:10.350Z,8.58
2019-03-06T19:18:38.843Z,8.15
2019-03-06T19:21:07.690Z,10.45
2019-03-06T19:23:36.211Z,9.57
2019-03-06T19:26:04.959Z,7.45
2019-03-06T19:28:34.486Z,6.70
2019-03-06T19:31:03.366Z,13.62
2019-03-06T19:33:31.877Z,10.13
2019-03-06T19:36:00.348Z,13.78
2019-03-06T19:38:28.835Z,6.08
2019-03-06T19:40:57.239Z,8.65
2019-03-06T19:43:25.693Z,10.98
2019-03-06T19:45:54.164Z,8.70
2019-03-06T19:48:22.653Z,10.15
2019-03-06T19:50:51.143Z,12.07
2019-03-06T19:53:19.595Z,11.08
2019-03-06T19:55:48.083Z,12.73
2019-03-06T19:58:17.285Z,9.43
2019-03-06T20:00:45.769Z,11.15
2019-03-06T20:03:14.271Z,8.58
2019-03-06T20:05:43.001Z,7.85
2019-03-06T20:08:11.839Z,8.20
2019-03-06T20:10:41.325Z,8.88
2019-03-06T20:13:09.828Z,8.53
2019-03-06T20:15:38.359Z,8.13
2019-03-06T20:18:07.168Z,9.20
2019-03-06T20:20:35.646Z,12.75
2019-03-06T20:23:04.483Z,11.75
2019-03-06T20:25:32.918Z,9.25
2019-03-06T20:28:02.106Z,7.33
2019-03-06T20:30:32.544Z,7.45
2019-03-06T20:33:01.020Z,8.88
2019-03-06T20:35:29.526Z,10.30
2019-03-06T20:37:58.181Z,9.33
2019-03-06T20:40:27.980Z,14.73
2019-03-06T20:42:56.391Z,13.60
2019-03-06T20:45:24.881Z,28.32
2019-03-06T20:47:53.353Z,18.45
2019-03-06T20:50:21.834Z,15.38
2019-03-06T20:52:50.646Z,12.40
2019-03-06T20:55:18.801Z,12.82
2019-03-06T20:58:07.058Z,9.10
2019-03-06T21:00:44.011Z,13.10
2019-03-06T21:03:12.480Z,8.60
2019-03-06T21:05:40.973Z,7.97
2019-03-06T21:08:09.437Z,12.37
2019-03-06T21:10:38.224Z,7.80
2019-03-06T21:13:06.708Z,7.83
2019-03-06T21:15:35.272Z,7.78
2019-03-06T21:18:03.767Z,8.95
2019-03-06T21:20:32.289Z,9.13
2019-03-06T21:23:00.738Z,6.78
2019-03-06T21:25:29.484Z,8.95
2019-03-06T21:27:58.244Z,9.20
2019-03-06T21:30:29.984Z,14.93
2019-03-06T21:32:58.391Z,7.25
2019-03-06T21:35:27.216Z,8.78
2019-03-06T21:37:55.705Z,7.70
2019-03-06T21:40:24.483Z,10.55
2019-03-06T21:42:52.975Z,7.45
2019-03-06T21:45:21.373Z,8.45
2019-03-06T21:47:49.833Z,11.18
2019-03-06T21:50:18.376Z,8.08
2019-03-06T21:52:46.801Z,12.90
2019-03-06T21:55:15.301Z,8.73
2019-03-06T21:57:44.811Z,7.12
2019-03-06T22:00:15.070Z,7.47
2019-03-06T22:02:43.604Z,6.90
2019-03-06T22:05:13.176Z,5.25
2019-03-06T22:07:43.968Z,5.77
2019-03-06T22:10:12.324Z,6.80
2019-03-06T22:12:40.788Z,7.22
2019-03-06T22:15:09.876Z,6.78
2019-03-06T22:17:39.410Z,6.87
2019-03-06T22:20:09.323Z,6.50
2019-03-06T22:22:38.188Z,8.05
2019-03-06T22:25:07.105Z,7.70
2019-03-06T22:27:35.568Z,8.08
2019-03-06T22:30:04.369Z,7.65
2019-03-06T22:32:32.835Z,7.58
2019-03-06T22:35:01.312Z,9.70
2019-03-06T22:37:29.806Z,8.15
2019-03-06T22:39:58.282Z,8.13
2019-03-06T22:42:27.156Z,7.40
2019-03-06T22:44:55.671Z,7.10
2019-03-06T22:47:24.400Z,10.58
2019-03-06T22:49:53.830Z,7.33
2019-03-06T22:52:23.361Z,6.53
2019-03-06T22:54:51.830Z,6.12
2019-03-06T22:57:20.724Z,6.17
2019-03-06T22:59:49.194Z,8.73
2019-03-06T23:02:18.712Z,10.15
2019-03-06T23:04:47.405Z,7.58
2019-03-06T23:07:15.874Z,7.03
2019-03-06T23:09:44.344Z,8.60
2019-03-06T23:12:15.142Z,8.80
2019-03-06T23:14:43.565Z,7.70
2019-03-06T23:17:12.440Z,9.65
2019-03-06T23:19:40.941Z,9.38
2019-03-06T23:22:09.411Z,7.80
2019-03-06T23:24:37.901Z,7.78
2019-03-06T23:27:06.359Z,5.50
2019-03-06T23:29:34.852Z,7.20
2019-03-06T23:32:04.343Z,8.88
2019-03-06T23:34:32.851Z,8.60
2019-03-06T23:37:01.325Z,9.60
2019-03-06T23:39:29.798Z,8.88
2019-03-06T23:41:58.265Z,6.95
2019-03-06T23:44:27.163Z,11.75
2019-03-06T23:46:55.641Z,10.08
2019-03-06T23:49:24.138Z,8.53
2019-03-06T23:52:09.121Z,9.63
2019-03-06T23:54:38.617Z,7.83
2019-03-06T23:57:07.484Z,9.98
2019-03-06T23:59:36.000Z,8.43
